Etusivu
METAR-TAF:

METAR-TAF

Lentoasemat :

N’Djamenan kansainvälinen lentoasema

N'Djamena, Tšad

Leveyspiiri: 12-08N, Pituuspiiri: 015-02E, korkeus merenpinnasta: 295 m

Tämänhetkinen sää

Tämä raportti tehtiin 1 tunti ja 5 minuuttia sitten, kello 16.00 UTC
Tuuli 13 kn pohjoisesta
Lämpötila 35°C
Kosteus 7%
Ilmanpaine 1008 hPa
Näkyvyys: 6000 m

METAR: FTTJ 221600Z 36013KT 6000 NSC 35/M06 Q1008 NOSIG

Aika: 18:05 (17:05 UTC)

Sääennuste

Tämä raportti tehtiin 6 tuntia ja 5 minuuttia sitten, kello 11.00 UTC
Ennuste voimassa 22. päivästä klo 12 UTC - 23. päivään klo 18 UTC
Tuuli 15 kn pohjoisesta/koillisesta
Näkyvyys: 7000 m
Ajoittain
22. päivästä klo 15 UTC - 22. päivään klo 21 UTC
Näkyvyys: 4000 m
laajalle levinnyttä pölyä
Tulossa
23. päivästä klo 00 UTC - 23. päivään klo 06 UTC
Näkyvyys: 2000 m

TAF: FTTJ 221100Z 2212/2318 02015KT 7000 NSC TEMPO 2215/2221 4000 DU BECMG 2300/2306 2000

Säähavainnot ja -ennusteet yli 4000 lentoasemalta (METAR- ja TAF-raportit).

Käytössä olevat sääasemat on merkitty karttaan keltaisilla ja punaisilla pisteillä.

Aseta hiiri pisteen päälle nähdäksesi sääaseman nimen.

Klikkaa sitten nähdäksesi säähavainnot ja -ennusteet.

Kartan vaihtaminen: klikkaa mustalla rastilla varustettuja vihreitä pisteitä, niin voit zoomata sisään; viivalla varustettua vihreää pistettä, niin voit zoomata ulos tai vihreitä nuolia, niin pääset viereisille kartoille.


METAR-TAF: